sensor_id;sensor_type;location;lat;lon;timestamp;P1;durP1;ratioP1;P2;durP2;ratioP2
27644;SDS011;15054;57.152;-2.118;2022-10-14T00:01:13;3.05;;;1.30;;
27644;SDS011;15054;57.152;-2.118;2022-10-14T00:03:43;1.83;;;1.00;;
27644;SDS011;15054;57.152;-2.118;2022-10-14T00:06:15;1.85;;;0.90;;
27644;SDS011;15054;57.152;-2.118;2022-10-14T00:08:44;3.10;;;1.38;;
27644;SDS011;15054;57.152;-2.118;2022-10-14T00:11:16;3.35;;;1.77;;
27644;SDS011;15054;57.152;-2.118;2022-10-14T00:13:58;2.45;;;0.80;;
27644;SDS011;15054;57.152;-2.118;2022-10-14T00:16:29;2.65;;;0.90;;
27644;SDS011;15054;57.152;-2.118;2022-10-14T00:18:58;1.80;;;0.80;;
27644;SDS011;15054;57.152;-2.118;2022-10-14T00:21:26;1.10;;;0.90;;
27644;SDS011;15054;57.152;-2.118;2022-10-14T00:23:54;2.55;;;1.00;;
27644;SDS011;15054;57.152;-2.118;2022-10-14T00:26:26;1.55;;;1.00;;
27644;SDS011;15054;57.152;-2.118;2022-10-14T00:28:59;1.75;;;0.80;;
27644;SDS011;15054;57.152;-2.118;2022-10-14T00:31:29;3.65;;;1.10;;
27644;SDS011;15054;57.152;-2.118;2022-10-14T00:33:59;3.63;;;0.90;;
27644;SDS011;15054;57.152;-2.118;2022-10-14T00:36:27;1.55;;;1.10;;
27644;SDS011;15054;57.152;-2.118;2022-10-14T00:38:54;2.67;;;1.15;;
27644;SDS011;15054;57.152;-2.118;2022-10-14T00:41:24;3.17;;;1.42;;
27644;SDS011;15054;57.152;-2.118;2022-10-14T00:43:58;1.83;;;0.93;;
27644;SDS011;15054;57.152;-2.118;2022-10-14T00:46:28;2.90;;;0.98;;
27644;SDS011;15054;57.152;-2.118;2022-10-14T00:49:18;2.83;;;1.00;;
27644;SDS011;15054;57.152;-2.118;2022-10-14T00:51:57;2.30;;;1.05;;
27644;SDS011;15054;57.152;-2.118;2022-10-14T00:54:43;1.10;;;0.90;;
27644;SDS011;15054;57.152;-2.118;2022-10-14T00:57:13;2.60;;;0.90;;
27644;SDS011;15054;57.152;-2.118;2022-10-14T00:59:42;2.72;;;1.00;;
27644;SDS011;15054;57.152;-2.118;2022-10-14T01:02:09;2.33;;;1.33;;
27644;SDS011;15054;57.152;-2.118;2022-10-14T01:04:37;5.97;;;1.38;;
27644;SDS011;15054;57.152;-2.118;2022-10-14T01:07:10;3.60;;;1.23;;
27644;SDS011;15054;57.152;-2.118;2022-10-14T01:31:49;4.07;;;1.90;;
27644;SDS011;15054;57.152;-2.118;2022-10-14T01:34:35;3.20;;;1.90;;
27644;SDS011;15054;57.152;-2.118;2022-10-14T01:37:11;3.60;;;2.20;;
27644;SDS011;15054;57.152;-2.118;2022-10-14T01:39:46;3.63;;;1.77;;
27644;SDS011;15054;57.152;-2.118;2022-10-14T01:42:21;2.42;;;1.83;;
27644;SDS011;15054;57.152;-2.118;2022-10-14T01:44:55;4.10;;;1.83;;
27644;SDS011;15054;57.152;-2.118;2022-10-14T01:47:28;2.75;;;1.83;;
27644;SDS011;15054;57.152;-2.118;2022-10-14T01:50:07;2.13;;;1.83;;
27644;SDS011;15054;57.152;-2.118;2022-10-14T01:52:39;4.07;;;1.75;;
27644;SDS011;15054;57.152;-2.118;2022-10-14T01:55:35;2.28;;;1.48;;
27644;SDS011;15054;57.152;-2.118;2022-10-14T01:58:07;2.22;;;1.77;;
27644;SDS011;15054;57.152;-2.118;2022-10-14T02:00:36;3.90;;;1.70;;
27644;SDS011;15054;57.152;-2.118;2022-10-14T02:03:04;2.88;;;1.80;;
27644;SDS011;15054;57.152;-2.118;2022-10-14T02:05:48;3.95;;;2.03;;
27644;SDS011;15054;57.152;-2.118;2022-10-14T02:08:28;2.33;;;1.60;;
27644;SDS011;15054;57.152;-2.118;2022-10-14T02:11:06;1.27;;;1.17;;
27644;SDS011;15054;57.152;-2.118;2022-10-14T02:13:48;3.05;;;1.50;;
27644;SDS011;15054;57.152;-2.118;2022-10-14T02:16:47;4.28;;;1.90;;
27644;SDS011;15054;57.152;-2.118;2022-10-14T02:22:03;4.68;;;1.85;;
27644;SDS011;15054;57.152;-2.118;2022-10-14T02:24:46;2.53;;;1.40;;
27644;SDS011;15054;57.152;-2.118;2022-10-14T02:27:18;1.75;;;1.30;;
27644;SDS011;15054;57.152;-2.118;2022-10-14T02:29:48;2.97;;;1.27;;
27644;SDS011;15054;57.152;-2.118;2022-10-14T02:32:18;2.58;;;1.23;;
27644;SDS011;15054;57.152;-2.118;2022-10-14T02:34:49;4.10;;;1.30;;
27644;SDS011;15054;57.152;-2.118;2022-10-14T02:37:20;5.03;;;1.25;;
27644;SDS011;15054;57.152;-2.118;2022-10-14T02:39:59;4.95;;;1.40;;
27644;SDS011;15054;57.152;-2.118;2022-10-14T02:42:34;4.75;;;1.23;;
27644;SDS011;15054;57.152;-2.118;2022-10-14T02:45:03;3.17;;;1.00;;
27644;SDS011;15054;57.152;-2.118;2022-10-14T02:47:31;2.08;;;1.10;;
27644;SDS011;15054;57.152;-2.118;2022-10-14T02:49:59;2.47;;;1.08;;
27644;SDS011;15054;57.152;-2.118;2022-10-14T02:52:26;2.92;;;1.25;;
27644;SDS011;15054;57.152;-2.118;2022-10-14T02:54:53;2.80;;;1.40;;
27644;SDS011;15054;57.152;-2.118;2022-10-14T02:57:21;1.77;;;1.08;;
27644;SDS011;15054;57.152;-2.118;2022-10-14T02:59:48;3.35;;;1.02;;
27644;SDS011;15054;57.152;-2.118;2022-10-14T03:02:15;4.47;;;1.15;;
27644;SDS011;15054;57.152;-2.118;2022-10-14T03:04:44;4.05;;;1.55;;
27644;SDS011;15054;57.152;-2.118;2022-10-14T03:07:11;4.10;;;1.58;;
27644;SDS011;15054;57.152;-2.118;2022-10-14T03:09:43;4.57;;;1.40;;
27644;SDS011;15054;57.152;-2.118;2022-10-14T03:12:10;2.80;;;1.88;;
27644;SDS011;15054;57.152;-2.118;2022-10-14T03:14:38;1.83;;;0.80;;
27644;SDS011;15054;57.152;-2.118;2022-10-14T03:17:07;1.25;;;0.90;;
27644;SDS011;15054;57.152;-2.118;2022-10-14T03:19:35;3.22;;;1.10;;
27644;SDS011;15054;57.152;-2.118;2022-10-14T03:22:02;2.45;;;1.00;;
27644;SDS011;15054;57.152;-2.118;2022-10-14T03:24:30;2.47;;;1.10;;
27644;SDS011;15054;57.152;-2.118;2022-10-14T03:29:47;6.60;;;1.73;;
27644;SDS011;15054;57.152;-2.118;2022-10-14T03:32:19;2.67;;;1.10;;
27644;SDS011;15054;57.152;-2.118;2022-10-14T03:35:18;3.90;;;1.45;;
27644;SDS011;15054;57.152;-2.118;2022-10-14T03:37:48;3.80;;;0.90;;
27644;SDS011;15054;57.152;-2.118;2022-10-14T03:40:19;3.90;;;1.20;;
27644;SDS011;15054;57.152;-2.118;2022-10-14T03:42:48;2.55;;;1.20;;
27644;SDS011;15054;57.152;-2.118;2022-10-14T03:45:16;2.40;;;1.10;;
27644;SDS011;15054;57.152;-2.118;2022-10-14T03:47:46;2.08;;;1.17;;
27644;SDS011;15054;57.152;-2.118;2022-10-14T03:50:13;2.85;;;1.00;;
27644;SDS011;15054;57.152;-2.118;2022-10-14T03:52:47;2.78;;;1.30;;
27644;SDS011;15054;57.152;-2.118;2022-10-14T03:55:26;3.22;;;1.00;;
27644;SDS011;15054;57.152;-2.118;2022-10-14T03:57:54;5.22;;;1.17;;
27644;SDS011;15054;57.152;-2.118;2022-10-14T04:00:21;2.33;;;1.17;;
27644;SDS011;15054;57.152;-2.118;2022-10-14T04:02:59;4.53;;;1.10;;
27644;SDS011;15054;57.152;-2.118;2022-10-14T04:05:34;5.93;;;1.17;;
27644;SDS011;15054;57.152;-2.118;2022-10-14T04:08:08;2.83;;;1.00;;
27644;SDS011;15054;57.152;-2.118;2022-10-14T04:10:38;3.30;;;1.05;;
27644;SDS011;15054;57.152;-2.118;2022-10-14T04:13:08;4.20;;;1.45;;
27644;SDS011;15054;57.152;-2.118;2022-10-14T04:15:39;3.00;;;0.95;;
27644;SDS011;15054;57.152;-2.118;2022-10-14T04:18:11;3.65;;;1.50;;
27644;SDS011;15054;57.152;-2.118;2022-10-14T04:20:40;2.83;;;1.20;;
27644;SDS011;15054;57.152;-2.118;2022-10-14T04:23:08;3.78;;;1.35;;
27644;SDS011;15054;57.152;-2.118;2022-10-14T04:25:38;1.73;;;1.15;;
27644;SDS011;15054;57.152;-2.118;2022-10-14T04:28:06;1.42;;;1.20;;
27644;SDS011;15054;57.152;-2.118;2022-10-14T04:30:51;1.83;;;0.63;;
27644;SDS011;15054;57.152;-2.118;2022-10-14T04:33:24;2.13;;;1.20;;
27644;SDS011;15054;57.152;-2.118;2022-10-14T04:36:01;5.35;;;1.45;;
27644;SDS011;15054;57.152;-2.118;2022-10-14T04:38:34;1.95;;;0.90;;
27644;SDS011;15054;57.152;-2.118;2022-10-14T04:41:05;1.50;;;1.20;;
27644;SDS011;15054;57.152;-2.118;2022-10-14T04:43:33;2.05;;;1.10;;
27644;SDS011;15054;57.152;-2.118;2022-10-14T04:46:15;1.65;;;1.00;;
27644;SDS011;15054;57.152;-2.118;2022-10-14T04:48:43;5.28;;;1.23;;
27644;SDS011;15054;57.152;-2.118;2022-10-14T04:51:15;1.85;;;1.00;;
27644;SDS011;15054;57.152;-2.118;2022-10-14T04:53:47;1.08;;;1.00;;
27644;SDS011;15054;57.152;-2.118;2022-10-14T04:56:28;3.83;;;0.98;;
27644;SDS011;15054;57.152;-2.118;2022-10-14T04:58:59;1.52;;;0.82;;
27644;SDS011;15054;57.152;-2.118;2022-10-14T05:01:46;4.03;;;1.45;;
27644;SDS011;15054;57.152;-2.118;2022-10-14T05:04:13;1.70;;;0.80;;
27644;SDS011;15054;57.152;-2.118;2022-10-14T05:06:43;1.85;;;0.75;;
27644;SDS011;15054;57.152;-2.118;2022-10-14T05:09:13;3.92;;;1.10;;
27644;SDS011;15054;57.152;-2.118;2022-10-14T05:11:41;2.58;;;0.73;;
27644;SDS011;15054;57.152;-2.118;2022-10-14T05:14:11;0.70;;;0.70;;
27644;SDS011;15054;57.152;-2.118;2022-10-14T05:16:41;1.38;;;0.70;;
27644;SDS011;15054;57.152;-2.118;2022-10-14T05:19:09;3.40;;;1.15;;
27644;SDS011;15054;57.152;-2.118;2022-10-14T05:21:45;3.15;;;0.90;;
27644;SDS011;15054;57.152;-2.118;2022-10-14T05:24:18;2.80;;;0.93;;
27644;SDS011;15054;57.152;-2.118;2022-10-14T05:26:45;1.80;;;0.68;;
27644;SDS011;15054;57.152;-2.118;2022-10-14T05:29:13;1.55;;;1.00;;
27644;SDS011;15054;57.152;-2.118;2022-10-14T05:31:41;2.38;;;0.73;;
27644;SDS011;15054;57.152;-2.118;2022-10-14T05:34:19;3.58;;;1.58;;
27644;SDS011;15054;57.152;-2.118;2022-10-14T05:36:47;1.02;;;0.73;;
27644;SDS011;15054;57.152;-2.118;2022-10-14T05:39:15;1.45;;;0.63;;
27644;SDS011;15054;57.152;-2.118;2022-10-14T05:41:42;1.02;;;0.73;;
27644;SDS011;15054;57.152;-2.118;2022-10-14T05:44:10;1.20;;;0.90;;
27644;SDS011;15054;57.152;-2.118;2022-10-14T05:46:38;5.00;;;0.85;;
27644;SDS011;15054;57.152;-2.118;2022-10-14T05:49:06;2.35;;;0.80;;
27644;SDS011;15054;57.152;-2.118;2022-10-14T05:51:36;1.88;;;0.73;;
27644;SDS011;15054;57.152;-2.118;2022-10-14T05:54:13;1.88;;;0.63;;
27644;SDS011;15054;57.152;-2.118;2022-10-14T05:56:42;3.40;;;0.65;;
27644;SDS011;15054;57.152;-2.118;2022-10-14T05:59:09;1.30;;;0.60;;
27644;SDS011;15054;57.152;-2.118;2022-10-14T06:01:38;2.65;;;0.80;;
27644;SDS011;15054;57.152;-2.118;2022-10-14T06:04:14;2.78;;;0.68;;
27644;SDS011;15054;57.152;-2.118;2022-10-14T06:06:43;1.27;;;0.73;;
27644;SDS011;15054;57.152;-2.118;2022-10-14T06:09:13;1.70;;;0.70;;
27644;SDS011;15054;57.152;-2.118;2022-10-14T06:11:40;2.28;;;0.57;;
27644;SDS011;15054;57.152;-2.118;2022-10-14T06:14:08;1.05;;;0.50;;
27644;SDS011;15054;57.152;-2.118;2022-10-14T06:16:35;0.82;;;0.40;;
27644;SDS011;15054;57.152;-2.118;2022-10-14T06:19:05;2.40;;;0.60;;
27644;SDS011;15054;57.152;-2.118;2022-10-14T06:21:32;0.90;;;0.43;;
27644;SDS011;15054;57.152;-2.118;2022-10-14T06:23:59;3.53;;;0.50;;
27644;SDS011;15054;57.152;-2.118;2022-10-14T06:26:26;5.80;;;0.75;;
27644;SDS011;15054;57.152;-2.118;2022-10-14T06:28:54;5.97;;;1.27;;
27644;SDS011;15054;57.152;-2.118;2022-10-14T06:31:21;4.78;;;0.60;;
27644;SDS011;15054;57.152;-2.118;2022-10-14T06:33:48;5.38;;;0.50;;
27644;SDS011;15054;57.152;-2.118;2022-10-14T06:36:15;1.42;;;0.40;;
27644;SDS011;15054;57.152;-2.118;2022-10-14T06:38:42;5.32;;;0.98;;
27644;SDS011;15054;57.152;-2.118;2022-10-14T06:41:10;2.72;;;0.50;;
27644;SDS011;15054;57.152;-2.118;2022-10-14T06:43:37;5.78;;;1.13;;
27644;SDS011;15054;57.152;-2.118;2022-10-14T06:46:04;3.00;;;0.60;;
27644;SDS011;15054;57.152;-2.118;2022-10-14T06:48:31;3.85;;;0.85;;
27644;SDS011;15054;57.152;-2.118;2022-10-14T06:50:59;2.40;;;0.55;;
27644;SDS011;15054;57.152;-2.118;2022-10-14T06:53:28;4.10;;;0.70;;
27644;SDS011;15054;57.152;-2.118;2022-10-14T06:55:59;4.35;;;0.70;;
27644;SDS011;15054;57.152;-2.118;2022-10-14T06:58:27;0.60;;;0.40;;
27644;SDS011;15054;57.152;-2.118;2022-10-14T07:00:59;1.80;;;0.73;;
27644;SDS011;15054;57.152;-2.118;2022-10-14T07:03:27;3.88;;;0.70;;
27644;SDS011;15054;57.152;-2.118;2022-10-14T07:05:54;6.43;;;0.85;;
27644;SDS011;15054;57.152;-2.118;2022-10-14T07:08:21;3.53;;;0.68;;
27644;SDS011;15054;57.152;-2.118;2022-10-14T07:10:48;3.75;;;0.50;;
27644;SDS011;15054;57.152;-2.118;2022-10-14T07:13:15;2.80;;;0.70;;
27644;SDS011;15054;57.152;-2.118;2022-10-14T07:15:46;3.97;;;0.60;;
27644;SDS011;15054;57.152;-2.118;2022-10-14T07:18:14;3.35;;;0.63;;
27644;SDS011;15054;57.152;-2.118;2022-10-14T07:20:41;5.40;;;0.60;;
27644;SDS011;15054;57.152;-2.118;2022-10-14T07:23:08;3.22;;;1.05;;
27644;SDS011;15054;57.152;-2.118;2022-10-14T07:25:36;5.00;;;0.85;;
27644;SDS011;15054;57.152;-2.118;2022-10-14T07:28:03;3.75;;;0.68;;
27644;SDS011;15054;57.152;-2.118;2022-10-14T07:30:30;4.68;;;0.90;;
27644;SDS011;15054;57.152;-2.118;2022-10-14T07:32:57;3.67;;;0.98;;
27644;SDS011;15054;57.152;-2.118;2022-10-14T07:35:25;2.28;;;0.68;;
27644;SDS011;15054;57.152;-2.118;2022-10-14T07:37:52;5.85;;;0.52;;
27644;SDS011;15054;57.152;-2.118;2022-10-14T07:40:20;3.40;;;0.85;;
27644;SDS011;15054;57.152;-2.118;2022-10-14T07:42:47;6.78;;;0.93;;
27644;SDS011;15054;57.152;-2.118;2022-10-14T07:45:14;5.40;;;0.60;;
27644;SDS011;15054;57.152;-2.118;2022-10-14T07:47:44;2.92;;;0.60;;
27644;SDS011;15054;57.152;-2.118;2022-10-14T07:50:14;5.38;;;1.10;;
27644;SDS011;15054;57.152;-2.118;2022-10-14T07:52:41;3.97;;;0.98;;
27644;SDS011;15054;57.152;-2.118;2022-10-14T07:55:08;5.90;;;1.52;;
27644;SDS011;15054;57.152;-2.118;2022-10-14T07:57:35;6.57;;;1.77;;
27644;SDS011;15054;57.152;-2.118;2022-10-14T08:00:02;5.22;;;1.50;;
27644;SDS011;15054;57.152;-2.118;2022-10-14T08:02:37;5.90;;;1.40;;
27644;SDS011;15054;57.152;-2.118;2022-10-14T08:05:04;6.43;;;1.13;;
27644;SDS011;15054;57.152;-2.118;2022-10-14T08:07:51;9.68;;;1.33;;
27644;SDS011;15054;57.152;-2.118;2022-10-14T08:10:19;6.30;;;1.38;;
27644;SDS011;15054;57.152;-2.118;2022-10-14T08:12:46;5.70;;;1.33;;
27644;SDS011;15054;57.152;-2.118;2022-10-14T08:15:13;4.25;;;1.17;;
27644;SDS011;15054;57.152;-2.118;2022-10-14T08:17:40;6.15;;;1.30;;
27644;SDS011;15054;57.152;-2.118;2022-10-14T08:20:07;4.78;;;1.10;;
27644;SDS011;15054;57.152;-2.118;2022-10-14T08:22:34;6.30;;;1.45;;
27644;SDS011;15054;57.152;-2.118;2022-10-14T08:25:01;5.95;;;1.35;;
27644;SDS011;15054;57.152;-2.118;2022-10-14T08:27:29;6.50;;;1.73;;
27644;SDS011;15054;57.152;-2.118;2022-10-14T08:29:56;6.25;;;1.38;;
27644;SDS011;15054;57.152;-2.118;2022-10-14T08:32:23;6.80;;;1.30;;
27644;SDS011;15054;57.152;-2.118;2022-10-14T08:34:50;8.85;;;1.75;;
27644;SDS011;15054;57.152;-2.118;2022-10-14T08:37:17;6.20;;;1.25;;
27644;SDS011;15054;57.152;-2.118;2022-10-14T08:39:44;2.88;;;1.00;;
27644;SDS011;15054;57.152;-2.118;2022-10-14T08:42:20;6.15;;;1.55;;
27644;SDS011;15054;57.152;-2.118;2022-10-14T08:45:21;4.75;;;1.10;;
27644;SDS011;15054;57.152;-2.118;2022-10-14T08:47:57;2.38;;;0.82;;
27644;SDS011;15054;57.152;-2.118;2022-10-14T08:50:32;4.80;;;1.00;;
27644;SDS011;15054;57.152;-2.118;2022-10-14T08:53:16;6.35;;;1.38;;
27644;SDS011;15054;57.152;-2.118;2022-10-14T08:55:54;5.45;;;1.52;;
27644;SDS011;15054;57.152;-2.118;2022-10-14T08:58:41;4.00;;;0.90;;
27644;SDS011;15054;57.152;-2.118;2022-10-14T09:03:53;3.72;;;0.55;;
27644;SDS011;15054;57.152;-2.118;2022-10-14T09:06:24;3.67;;;0.70;;
27644;SDS011;15054;57.152;-2.118;2022-10-14T09:08:55;3.92;;;0.90;;
27644;SDS011;15054;57.152;-2.118;2022-10-14T09:11:44;3.00;;;0.95;;
27644;SDS011;15054;57.152;-2.118;2022-10-14T09:14:17;2.53;;;0.75;;
27644;SDS011;15054;57.152;-2.118;2022-10-14T09:16:48;2.70;;;0.98;;
27644;SDS011;15054;57.152;-2.118;2022-10-14T09:19:33;4.00;;;1.02;;
27644;SDS011;15054;57.152;-2.118;2022-10-14T09:22:10;5.18;;;0.98;;
27644;SDS011;15054;57.152;-2.118;2022-10-14T09:24:39;3.40;;;0.60;;
27644;SDS011;15054;57.152;-2.118;2022-10-14T09:27:17;5.53;;;0.80;;
27644;SDS011;15054;57.152;-2.118;2022-10-14T09:29:53;2.85;;;0.60;;
27644;SDS011;15054;57.152;-2.118;2022-10-14T09:34:58;3.78;;;0.85;;
27644;SDS011;15054;57.152;-2.118;2022-10-14T09:37:32;4.00;;;0.80;;
27644;SDS011;15054;57.152;-2.118;2022-10-14T09:40:05;2.13;;;0.55;;
27644;SDS011;15054;57.152;-2.118;2022-10-14T09:42:53;2.13;;;0.80;;
27644;SDS011;15054;57.152;-2.118;2022-10-14T09:45:28;1.67;;;0.40;;
27644;SDS011;15054;57.152;-2.118;2022-10-14T09:48:28;3.08;;;0.70;;
27644;SDS011;15054;57.152;-2.118;2022-10-14T09:50:58;2.88;;;0.40;;
27644;SDS011;15054;57.152;-2.118;2022-10-14T09:53:31;2.88;;;0.80;;
27644;SDS011;15054;57.152;-2.118;2022-10-14T09:56:10;3.70;;;0.80;;
27644;SDS011;15054;57.152;-2.118;2022-10-14T10:01:14;4.18;;;0.77;;
27644;SDS011;15054;57.152;-2.118;2022-10-14T10:03:44;3.42;;;0.70;;
27644;SDS011;15054;57.152;-2.118;2022-10-14T10:06:16;4.53;;;1.13;;
27644;SDS011;15054;57.152;-2.118;2022-10-14T10:11:35;2.55;;;0.80;;
27644;SDS011;15054;57.152;-2.118;2022-10-14T10:19:39;2.60;;;0.70;;
27644;SDS011;15054;57.152;-2.118;2022-10-14T10:25:36;3.33;;;0.57;;
27644;SDS011;15054;57.152;-2.118;2022-10-14T10:27:38;5.07;;;0.70;;
27644;SDS011;15054;57.152;-2.118;2022-10-14T10:30:29;8.38;;;1.00;;
27644;SDS011;15054;57.152;-2.118;2022-10-14T10:35:53;2.95;;;0.55;;
27644;SDS011;15054;57.152;-2.118;2022-10-14T10:41:01;5.03;;;1.05;;
27644;SDS011;15054;57.152;-2.118;2022-10-14T10:51:53;3.22;;;1.05;;
27644;SDS011;15054;57.152;-2.118;2022-10-14T11:00:18;5.82;;;1.17;;
27644;SDS011;15054;57.152;-2.118;2022-10-14T11:08:59;7.00;;;0.90;;
27644;SDS011;15054;57.152;-2.118;2022-10-14T11:12:01;5.20;;;0.70;;
27644;SDS011;15054;57.152;-2.118;2022-10-14T11:18:21;5.85;;;0.75;;
27644;SDS011;15054;57.152;-2.118;2022-10-14T11:35:13;3.58;;;0.90;;
27644;SDS011;15054;57.152;-2.118;2022-10-14T11:38:08;4.30;;;0.95;;
27644;SDS011;15054;57.152;-2.118;2022-10-14T11:41:11;2.78;;;0.70;;
27644;SDS011;15054;57.152;-2.118;2022-10-14T11:46:28;3.92;;;0.70;;
27644;SDS011;15054;57.152;-2.118;2022-10-14T11:49:24;7.07;;;1.08;;
27644;SDS011;15054;57.152;-2.118;2022-10-14T11:51:56;2.47;;;0.93;;
27644;SDS011;15054;57.152;-2.118;2022-10-14T11:54:32;5.25;;;0.80;;
27644;SDS011;15054;57.152;-2.118;2022-10-14T11:57:17;1.92;;;0.63;;
27644;SDS011;15054;57.152;-2.118;2022-10-14T11:59:52;2.33;;;0.45;;
27644;SDS011;15054;57.152;-2.118;2022-10-14T12:04:58;6.68;;;0.77;;
27644;SDS011;15054;57.152;-2.118;2022-10-14T12:11:02;4.53;;;1.05;;
27644;SDS011;15054;57.152;-2.118;2022-10-14T12:13:44;3.08;;;0.60;;
27644;SDS011;15054;57.152;-2.118;2022-10-14T12:16:18;3.45;;;1.15;;
27644;SDS011;15054;57.152;-2.118;2022-10-14T12:18:49;3.92;;;1.00;;
27644;SDS011;15054;57.152;-2.118;2022-10-14T12:21:32;5.85;;;1.42;;
27644;SDS011;15054;57.152;-2.118;2022-10-14T12:24:07;3.10;;;0.70;;
27644;SDS011;15054;57.152;-2.118;2022-10-14T12:29:15;3.95;;;0.82;;
27644;SDS011;15054;57.152;-2.118;2022-10-14T12:34:31;4.22;;;0.90;;
27644;SDS011;15054;57.152;-2.118;2022-10-14T12:37:38;3.70;;;0.95;;
27644;SDS011;15054;57.152;-2.118;2022-10-14T12:42:38;3.17;;;0.50;;
27644;SDS011;15054;57.152;-2.118;2022-10-14T12:45:27;1.75;;;0.70;;
27644;SDS011;15054;57.152;-2.118;2022-10-14T12:50:47;4.53;;;1.23;;
27644;SDS011;15054;57.152;-2.118;2022-10-14T12:55:52;3.25;;;0.75;;
27644;SDS011;15054;57.152;-2.118;2022-10-14T12:58:37;6.72;;;0.93;;
27644;SDS011;15054;57.152;-2.118;2022-10-14T13:01:20;2.58;;;0.68;;
27644;SDS011;15054;57.152;-2.118;2022-10-14T13:04:01;5.22;;;0.50;;
27644;SDS011;15054;57.152;-2.118;2022-10-14T13:06:39;5.47;;;1.02;;
27644;SDS011;15054;57.152;-2.118;2022-10-14T13:11:39;6.97;;;1.30;;
27644;SDS011;15054;57.152;-2.118;2022-10-14T13:14:20;3.00;;;0.80;;
27644;SDS011;15054;57.152;-2.118;2022-10-14T13:16:59;4.95;;;1.38;;
27644;SDS011;15054;57.152;-2.118;2022-10-14T13:22:01;3.95;;;1.02;;
27644;SDS011;15054;57.152;-2.118;2022-10-14T13:25:10;5.72;;;1.10;;
27644;SDS011;15054;57.152;-2.118;2022-10-14T13:28:00;3.08;;;1.10;;
27644;SDS011;15054;57.152;-2.118;2022-10-14T13:30:38;5.25;;;0.80;;
27644;SDS011;15054;57.152;-2.118;2022-10-14T13:36:12;5.53;;;0.90;;
27644;SDS011;15054;57.152;-2.118;2022-10-14T13:38:58;1.38;;;0.70;;
27644;SDS011;15054;57.152;-2.118;2022-10-14T13:41:27;4.70;;;0.60;;
27644;SDS011;15054;57.152;-2.118;2022-10-14T13:43:57;8.27;;;1.25;;
27644;SDS011;15054;57.152;-2.118;2022-10-14T13:46:28;4.28;;;0.80;;
27644;SDS011;15054;57.152;-2.118;2022-10-14T13:49:06;4.82;;;0.90;;
27644;SDS011;15054;57.152;-2.118;2022-10-14T13:59:44;4.05;;;1.30;;
27644;SDS011;15054;57.152;-2.118;2022-10-14T14:02:38;3.55;;;1.00;;
27644;SDS011;15054;57.152;-2.118;2022-10-14T14:05:12;3.50;;;0.90;;
27644;SDS011;15054;57.152;-2.118;2022-10-14T14:07:41;7.60;;;1.10;;
27644;SDS011;15054;57.152;-2.118;2022-10-14T14:10:30;7.25;;;1.35;;
27644;SDS011;15054;57.152;-2.118;2022-10-14T14:12:58;8.32;;;0.90;;
27644;SDS011;15054;57.152;-2.118;2022-10-14T14:15:28;4.00;;;0.75;;
27644;SDS011;15054;57.152;-2.118;2022-10-14T14:17:55;6.35;;;1.45;;
27644;SDS011;15054;57.152;-2.118;2022-10-14T14:20:24;2.88;;;0.88;;
27644;SDS011;15054;57.152;-2.118;2022-10-14T14:22:56;2.05;;;0.60;;
27644;SDS011;15054;57.152;-2.118;2022-10-14T14:25:25;4.47;;;1.10;;
27644;SDS011;15054;57.152;-2.118;2022-10-14T14:30:40;1.13;;;0.47;;
27644;SDS011;15054;57.152;-2.118;2022-10-14T14:33:32;3.00;;;1.10;;
27644;SDS011;15054;57.152;-2.118;2022-10-14T14:36:01;2.00;;;0.65;;
27644;SDS011;15054;57.152;-2.118;2022-10-14T14:43:28;6.63;;;2.08;;
27644;SDS011;15054;57.152;-2.118;2022-10-14T14:46:03;2.72;;;2.15;;
27644;SDS011;15054;57.152;-2.118;2022-10-14T14:48:31;3.28;;;1.88;;
27644;SDS011;15054;57.152;-2.118;2022-10-14T14:51:00;1.73;;;1.63;;
27644;SDS011;15054;57.152;-2.118;2022-10-14T14:53:27;1.67;;;1.30;;
27644;SDS011;15054;57.152;-2.118;2022-10-14T14:58:30;2.65;;;1.15;;
27644;SDS011;15054;57.152;-2.118;2022-10-14T15:01:22;22.63;;;9.85;;
27644;SDS011;15054;57.152;-2.118;2022-10-14T15:03:54;16.55;;;8.25;;
27644;SDS011;15054;57.152;-2.118;2022-10-14T15:06:40;25.52;;;12.85;;
27644;SDS011;15054;57.152;-2.118;2022-10-14T15:09:21;34.40;;;18.58;;
27644;SDS011;15054;57.152;-2.118;2022-10-14T15:11:56;19.08;;;9.43;;
27644;SDS011;15054;57.152;-2.118;2022-10-14T15:14:27;14.45;;;8.27;;
27644;SDS011;15054;57.152;-2.118;2022-10-14T15:17:00;9.23;;;5.35;;
27644;SDS011;15054;57.152;-2.118;2022-10-14T15:19:34;7.53;;;4.43;;
27644;SDS011;15054;57.152;-2.118;2022-10-14T15:22:18;4.57;;;2.70;;
27644;SDS011;15054;57.152;-2.118;2022-10-14T15:25:04;4.00;;;2.90;;
27644;SDS011;15054;57.152;-2.118;2022-10-14T15:33:00;2.00;;;1.70;;
27644;SDS011;15054;57.152;-2.118;2022-10-14T15:35:30;2.17;;;1.48;;
27644;SDS011;15054;57.152;-2.118;2022-10-14T15:37:59;1.58;;;1.10;;
27644;SDS011;15054;57.152;-2.118;2022-10-14T15:40:27;1.48;;;1.10;;
27644;SDS011;15054;57.152;-2.118;2022-10-14T15:42:56;3.10;;;1.50;;
27644;SDS011;15054;57.152;-2.118;2022-10-14T15:45:24;5.47;;;4.13;;
27644;SDS011;15054;57.152;-2.118;2022-10-14T15:47:56;0.90;;;0.90;;
27644;SDS011;15054;57.152;-2.118;2022-10-14T15:50:28;1.83;;;1.10;;
27644;SDS011;15054;57.152;-2.118;2022-10-14T15:52:55;0.60;;;0.55;;
27644;SDS011;15054;57.152;-2.118;2022-10-14T15:55:26;0.35;;;0.35;;
27644;SDS011;15054;57.152;-2.118;2022-10-14T15:58:03;0.60;;;0.52;;
27644;SDS011;15054;57.152;-2.118;2022-10-14T16:00:31;1.83;;;0.60;;
27644;SDS011;15054;57.152;-2.118;2022-10-14T16:03:03;0.40;;;0.40;;
27644;SDS011;15054;57.152;-2.118;2022-10-14T16:05:31;0.45;;;0.32;;
27644;SDS011;15054;57.152;-2.118;2022-10-14T16:08:00;0.30;;;0.30;;
27644;SDS011;15054;57.152;-2.118;2022-10-14T16:10:27;0.68;;;0.35;;
27644;SDS011;15054;57.152;-2.118;2022-10-14T16:13:00;0.70;;;0.43;;
27644;SDS011;15054;57.152;-2.118;2022-10-14T16:15:32;2.17;;;0.20;;
27644;SDS011;15054;57.152;-2.118;2022-10-14T16:18:12;0.40;;;0.40;;
27644;SDS011;15054;57.152;-2.118;2022-10-14T16:20:39;0.35;;;0.20;;
27644;SDS011;15054;57.152;-2.118;2022-10-14T16:23:06;1.15;;;0.20;;
27644;SDS011;15054;57.152;-2.118;2022-10-14T16:25:37;1.38;;;0.30;;
27644;SDS011;15054;57.152;-2.118;2022-10-14T16:28:10;1.25;;;0.22;;
27644;SDS011;15054;57.152;-2.118;2022-10-14T16:30:39;2.30;;;1.45;;
27644;SDS011;15054;57.152;-2.118;2022-10-14T16:33:11;5.65;;;2.88;;
27644;SDS011;15054;57.152;-2.118;2022-10-14T16:35:38;2.65;;;1.52;;
27644;SDS011;15054;57.152;-2.118;2022-10-14T16:38:05;3.22;;;1.13;;
27644;SDS011;15054;57.152;-2.118;2022-10-14T16:40:34;0.63;;;0.63;;
27644;SDS011;15054;57.152;-2.118;2022-10-14T16:43:03;1.80;;;0.70;;
27644;SDS011;15054;57.152;-2.118;2022-10-14T16:45:31;1.30;;;0.70;;
27644;SDS011;15054;57.152;-2.118;2022-10-14T16:47:58;2.42;;;0.68;;
27644;SDS011;15054;57.152;-2.118;2022-10-14T16:50:27;0.60;;;0.60;;
27644;SDS011;15054;57.152;-2.118;2022-10-14T16:52:54;1.20;;;1.10;;
27644;SDS011;15054;57.152;-2.118;2022-10-14T16:55:40;1.70;;;1.60;;
27644;SDS011;15054;57.152;-2.118;2022-10-14T16:58:07;1.70;;;1.40;;
27644;SDS011;15054;57.152;-2.118;2022-10-14T17:00:35;4.47;;;1.45;;
27644;SDS011;15054;57.152;-2.118;2022-10-14T17:03:06;1.13;;;1.02;;
27644;SDS011;15054;57.152;-2.118;2022-10-14T17:05:33;4.93;;;1.40;;
27644;SDS011;15054;57.152;-2.118;2022-10-14T17:08:00;1.50;;;1.30;;
27644;SDS011;15054;57.152;-2.118;2022-10-14T17:10:27;2.92;;;1.20;;
27644;SDS011;15054;57.152;-2.118;2022-10-14T17:12:54;0.98;;;0.88;;
27644;SDS011;15054;57.152;-2.118;2022-10-14T17:15:22;1.27;;;1.00;;
27644;SDS011;15054;57.152;-2.118;2022-10-14T17:17:51;1.63;;;1.52;;
27644;SDS011;15054;57.152;-2.118;2022-10-14T17:20:18;2.83;;;2.00;;
27644;SDS011;15054;57.152;-2.118;2022-10-14T17:22:46;2.00;;;1.90;;
27644;SDS011;15054;57.152;-2.118;2022-10-14T17:25:15;2.92;;;2.50;;
27644;SDS011;15054;57.152;-2.118;2022-10-14T17:27:43;3.72;;;2.78;;
27644;SDS011;15054;57.152;-2.118;2022-10-14T17:30:10;3.40;;;2.70;;